Terminal Aerodrome Forecast
Issued by NWS

Home | Current Version | Previous Version | Text Only | Print | Product List | Glossary On
Versions: 1 2 3 4 5 6 7 8 9 10 11 12 13 14 15 16 17 18
000
FTUS43 KAPX 250500
TAFAPN
TAF
KAPN 250528Z 2506/2606 10009KT P6SM OVC100 WS015/13035KT
     FM251200 10011G20KT P6SM -RA SCT025 OVC050
     FM252000 10010KT P6SM BKN025
     FM260200 10006KT 5SM -SHRA OVC025=

USA.gov is the U.S. government's official web portal to all federal, state and local government web resources and services.